JBU1123 KDCA-KPBI
Flight info
| Callsign | JBU1123 |
|---|---|
| Flight time | 2h 4m |
| Altitude | 36000 |
| Route | AMEEE1 SCOOB PAACK Q97 KENLL CPTAN3 |
| Aircraft | A320/M-VGDW/C |
Departure
| Time | 2026-04-30 02:13 |
|---|---|
| Airport | Ronald Reagan Washington National Airport (KDCA) |
Arrival
| Time | 2026-04-30 04:17 |
|---|---|
| Airport | Palm Beach International Airport (KPBI) |
| Time | Latitude | Longitude | Altitude | Speed | Heading |
|---|---|---|---|---|---|
| 2026-04-30 01:26 | 38.85351 | -77.04199 | 24 ft | 0 kts | 342° |
| 2026-04-30 01:53 | 38.85332 | -77.04191 | 26 ft | 4 kts | 343° |
| 2026-04-30 01:54 | 38.85306 | -77.04185 | 25 ft | 4 kts | 17° |
| 2026-04-30 01:54 | 38.85295 | -77.04193 | 25 ft | 0 kts | 72° |
| 2026-04-30 02:03 | 38.85295 | -77.04192 | 24 ft | 1 kts | 72° |
| 2026-04-30 02:03 | 38.85312 | -77.04139 | 25 ft | 11 kts | 76° |
| 2026-04-30 02:03 | 38.85335 | -77.04040 | 24 ft | 13 kts | 64° |
| 2026-04-30 02:04 | 38.85414 | -77.04002 | 24 ft | 14 kts | 354° |
| 2026-04-30 02:04 | 38.85514 | -77.04021 | 24 ft | 14 kts | 346° |
| 2026-04-30 02:04 | 38.85599 | -77.04038 | 24 ft | 10 kts | 355° |
| 2026-04-30 02:04 | 38.85627 | -77.04041 | 24 ft | 1 kts | 355° |
| 2026-04-30 02:05 | 38.85628 | -77.04041 | 24 ft | 1 kts | 355° |
| 2026-04-30 02:05 | 38.85639 | -77.04042 | 24 ft | 2 kts | 355° |
| 2026-04-30 02:05 | 38.85651 | -77.04042 | 24 ft | 3 kts | 1° |
| 2026-04-30 02:06 | 38.85672 | -77.04035 | 25 ft | 4 kts | 17° |
| 2026-04-30 02:06 | 38.85694 | -77.04009 | 27 ft | 7 kts | 59° |
| 2026-04-30 02:06 | 38.85761 | -77.03979 | 29 ft | 14 kts | 355° |
| 2026-04-30 02:06 | 38.85847 | -77.03986 | 27 ft | 9 kts | 355° |
| 2026-04-30 02:07 | 38.85902 | -77.03989 | 24 ft | 8 kts | 5° |
| 2026-04-30 02:07 | 38.85942 | -77.03979 | 24 ft | 0 kts | 15° |
| 2026-04-30 02:08 | 38.85947 | -77.03977 | 25 ft | 1 kts | 15° |
| 2026-04-30 02:08 | 38.85957 | -77.03973 | 25 ft | 2 kts | 15° |
| 2026-04-30 02:08 | 38.85973 | -77.03967 | 24 ft | 3 kts | 16° |
| 2026-04-30 02:08 | 38.85989 | -77.03961 | 24 ft | 1 kts | 16° |
| 2026-04-30 02:09 | 38.85991 | -77.03961 | 24 ft | 0 kts | 16° |
| 2026-04-30 02:10 | 38.85993 | -77.03960 | 24 ft | 0 kts | 16° |
| 2026-04-30 02:11 | 38.85998 | -77.03958 | 24 ft | 2 kts | 16° |
| 2026-04-30 02:11 | 38.86050 | -77.03939 | 24 ft | 10 kts | 15° |
| 2026-04-30 02:11 | 38.86101 | -77.03898 | 23 ft | 7 kts | 63° |
| 2026-04-30 02:11 | 38.86087 | -77.03868 | 26 ft | 1 kts | 172° |
| 2026-04-30 02:12 | 38.86084 | -77.03868 | 25 ft | 0 kts | 178° |
| 2026-04-30 02:12 | 38.86079 | -77.03868 | 24 ft | 5 kts | 178° |
| 2026-04-30 02:12 | 38.85843 | -77.03845 | 30 ft | 67 kts | 175° |
| 2026-04-30 02:13 | 38.85180 | -77.03778 | 26 ft | 121 kts | 175° |
| 2026-04-30 02:13 | 38.84205 | -77.03683 | 108 ft | 154 kts | 176° |
| 2026-04-30 02:13 | 38.83213 | -77.03613 | 871 ft | 135 kts | 178° |
| 2026-04-30 02:13 | 38.82261 | -77.03471 | 1309 ft | 146 kts | 174° |
| 2026-04-30 02:14 | 38.81191 | -77.03230 | 1489 ft | 167 kts | 173° |
| 2026-04-30 02:14 | 38.79983 | -77.02950 | 1735 ft | 187 kts | 174° |
| 2026-04-30 02:14 | 38.78614 | -77.02636 | 1952 ft | 213 kts | 174° |
| 2026-04-30 02:14 | 38.77112 | -77.02293 | 2439 ft | 229 kts | 175° |
| 2026-04-30 02:15 | 38.75508 | -77.01873 | 3215 ft | 238 kts | 166° |
| 2026-04-30 02:15 | 38.73999 | -77.00828 | 3701 ft | 264 kts | 151° |
| 2026-04-30 02:15 | 38.72447 | -76.99458 | 4381 ft | 276 kts | 149° |
| 2026-04-30 02:15 | 38.70855 | -76.98024 | 5144 ft | 283 kts | 148° |
| 2026-04-30 02:16 | 38.69226 | -76.96554 | 5941 ft | 289 kts | 148° |
| 2026-04-30 02:16 | 38.67567 | -76.95063 | 6731 ft | 294 kts | 148° |
| 2026-04-30 02:16 | 38.65888 | -76.93562 | 7544 ft | 296 kts | 149° |
| 2026-04-30 02:16 | 38.64186 | -76.92050 | 8359 ft | 299 kts | 149° |
| 2026-04-30 02:17 | 38.62465 | -76.90529 | 9164 ft | 302 kts | 149° |
| 2026-04-30 02:17 | 38.60723 | -76.88996 | 9933 ft | 306 kts | 149° |
| 2026-04-30 02:17 | 38.58948 | -76.87438 | 10451 ft | 318 kts | 150° |
| 2026-04-30 02:17 | 38.57052 | -76.85782 | 10629 ft | 341 kts | 149° |
| 2026-04-30 02:18 | 38.55028 | -76.84012 | 10804 ft | 363 kts | 149° |
| 2026-04-30 02:18 | 38.52926 | -76.82155 | 11293 ft | 372 kts | 149° |
| 2026-04-30 02:18 | 38.50795 | -76.80247 | 11911 ft | 377 kts | 149° |
| 2026-04-30 02:18 | 38.48638 | -76.78305 | 12548 ft | 381 kts | 149° |
| 2026-04-30 02:19 | 38.46458 | -76.76343 | 13188 ft | 386 kts | 149° |
| 2026-04-30 02:19 | 38.44282 | -76.74385 | 13778 ft | 390 kts | 149° |
| 2026-04-30 02:19 | 38.41935 | -76.72567 | 14332 ft | 389 kts | 159° |
| 2026-04-30 02:19 | 38.39450 | -76.71355 | 14883 ft | 386 kts | 169° |
| 2026-04-30 02:20 | 38.36827 | -76.70718 | 15437 ft | 384 kts | 178° |
| 2026-04-30 02:20 | 38.34163 | -76.70301 | 16001 ft | 387 kts | 178° |
| 2026-04-30 02:20 | 38.31480 | -76.69877 | 16572 ft | 390 kts | 178° |
| 2026-04-30 02:20 | 38.28780 | -76.69446 | 17149 ft | 394 kts | 178° |
| 2026-04-30 02:21 | 38.26049 | -76.69008 | 17743 ft | 397 kts | 178° |
| 2026-04-30 02:21 | 38.23299 | -76.68564 | 18311 ft | 400 kts | 178° |
| 2026-04-30 02:21 | 38.20523 | -76.68116 | 18837 ft | 404 kts | 179° |
| 2026-04-30 02:21 | 38.17728 | -76.67665 | 19375 ft | 407 kts | 179° |
| 2026-04-30 02:22 | 38.14900 | -76.67210 | 19905 ft | 410 kts | 179° |
| 2026-04-30 02:22 | 38.12062 | -76.66755 | 20428 ft | 414 kts | 179° |
| 2026-04-30 02:22 | 38.09194 | -76.66317 | 20927 ft | 416 kts | 181° |
| 2026-04-30 02:22 | 38.06306 | -76.66007 | 21402 ft | 417 kts | 183° |
| 2026-04-30 02:23 | 38.03401 | -76.65802 | 21869 ft | 419 kts | 184° |
| 2026-04-30 02:23 | 38.00478 | -76.65654 | 22319 ft | 422 kts | 185° |
| 2026-04-30 02:23 | 37.97536 | -76.65521 | 22755 ft | 425 kts | 185° |
| 2026-04-30 02:23 | 37.94573 | -76.65373 | 23197 ft | 428 kts | 185° |
| 2026-04-30 02:24 | 37.91588 | -76.65205 | 23592 ft | 431 kts | 184° |
| 2026-04-30 02:24 | 37.88585 | -76.65017 | 23959 ft | 433 kts | 184° |
| 2026-04-30 02:24 | 37.85567 | -76.64814 | 24330 ft | 435 kts | 184° |
| 2026-04-30 02:24 | 37.82536 | -76.64601 | 24693 ft | 437 kts | 184° |
| 2026-04-30 02:25 | 37.79493 | -76.64384 | 25046 ft | 439 kts | 185° |
| 2026-04-30 02:25 | 37.76480 | -76.64172 | 25393 ft | 440 kts | 185° |
| 2026-04-30 02:25 | 37.73374 | -76.63960 | 25748 ft | 442 kts | 185° |
| 2026-04-30 02:25 | 37.70344 | -76.63759 | 26098 ft | 444 kts | 185° |
| 2026-04-30 02:26 | 37.67248 | -76.63557 | 26457 ft | 445 kts | 185° |
| 2026-04-30 02:26 | 37.64146 | -76.63359 | 26798 ft | 447 kts | 186° |
| 2026-04-30 02:26 | 37.61049 | -76.63265 | 27134 ft | 443 kts | 191° |
| 2026-04-30 02:26 | 37.58004 | -76.63674 | 27471 ft | 435 kts | 199° |
| 2026-04-30 02:27 | 37.55100 | -76.64601 | 27805 ft | 429 kts | 205° |
| 2026-04-30 02:27 | 37.52248 | -76.65709 | 28269 ft | 428 kts | 205° |
| 2026-04-30 02:27 | 37.49412 | -76.66806 | 28779 ft | 425 kts | 205° |
| 2026-04-30 02:27 | 37.46587 | -76.67894 | 29284 ft | 424 kts | 206° |
| 2026-04-30 02:28 | 37.43773 | -76.68977 | 29780 ft | 422 kts | 206° |
| 2026-04-30 02:28 | 37.40971 | -76.70055 | 30230 ft | 420 kts | 206° |
| 2026-04-30 02:28 | 37.38180 | -76.71128 | 30650 ft | 419 kts | 206° |
| 2026-04-30 02:28 | 37.35404 | -76.72192 | 31060 ft | 417 kts | 206° |
| 2026-04-30 02:29 | 37.32627 | -76.73255 | 31484 ft | 416 kts | 206° |
| 2026-04-30 02:29 | 37.29870 | -76.74310 | 31908 ft | 414 kts | 206° |
| 2026-04-30 02:29 | 37.27117 | -76.75363 | 32337 ft | 413 kts | 206° |
| 2026-04-30 02:29 | 37.24370 | -76.76411 | 32769 ft | 412 kts | 206° |
| 2026-04-30 02:30 | 37.21664 | -76.77442 | 33182 ft | 411 kts | 206° |
| 2026-04-30 02:30 | 37.19823 | -76.78143 | 33465 ft | 410 kts | 206° |
| 2026-04-30 02:30 | 37.16213 | -76.79526 | 33996 ft | 408 kts | 207° |
| 2026-04-30 02:30 | 37.13505 | -76.80568 | 34314 ft | 408 kts | 207° |
| 2026-04-30 02:31 | 37.10792 | -76.81609 | 34619 ft | 408 kts | 207° |
| 2026-04-30 02:31 | 37.08958 | -76.82310 | 34826 ft | 407 kts | 207° |
| 2026-04-30 02:31 | 37.06284 | -76.83329 | 35123 ft | 407 kts | 207° |
| 2026-04-30 02:31 | 37.03539 | -76.84371 | 35412 ft | 407 kts | 207° |
| 2026-04-30 02:32 | 37.00872 | -76.85381 | 35690 ft | 406 kts | 207° |
| 2026-04-30 02:32 | 36.98162 | -76.86408 | 35839 ft | 407 kts | 208° |
| 2026-04-30 02:32 | 36.95427 | -76.87450 | 35868 ft | 413 kts | 208° |
| 2026-04-30 02:33 | 36.89888 | -76.89567 | 35868 ft | 419 kts | 208° |
| 2026-04-30 02:33 | 36.84302 | -76.91679 | 35866 ft | 420 kts | 208° |
| 2026-04-30 02:34 | 36.78710 | -76.93776 | 35868 ft | 419 kts | 208° |
| 2026-04-30 02:34 | 36.73120 | -76.95884 | 35864 ft | 420 kts | 208° |
| 2026-04-30 02:35 | 36.67528 | -76.97998 | 35866 ft | 420 kts | 208° |
| 2026-04-30 02:35 | 36.61934 | -77.00101 | 35864 ft | 420 kts | 208° |
| 2026-04-30 02:36 | 36.56370 | -77.02195 | 35864 ft | 421 kts | 208° |
| 2026-04-30 02:36 | 36.50765 | -77.04298 | 35868 ft | 421 kts | 208° |
| 2026-04-30 02:37 | 36.45156 | -77.06403 | 35871 ft | 421 kts | 208° |
| 2026-04-30 02:37 | 36.39539 | -77.08498 | 35871 ft | 422 kts | 209° |
| 2026-04-30 02:38 | 36.33920 | -77.10587 | 35873 ft | 422 kts | 209° |
| 2026-04-30 02:38 | 36.28296 | -77.12686 | 35876 ft | 422 kts | 209° |
| 2026-04-30 02:39 | 36.22669 | -77.14786 | 35872 ft | 422 kts | 209° |
| 2026-04-30 02:39 | 36.17033 | -77.16877 | 35874 ft | 423 kts | 209° |
| 2026-04-30 02:40 | 36.11399 | -77.18970 | 35872 ft | 423 kts | 209° |
| 2026-04-30 02:40 | 36.05789 | -77.21049 | 35870 ft | 424 kts | 209° |
| 2026-04-30 02:41 | 36.00135 | -77.23143 | 35868 ft | 424 kts | 209° |
| 2026-04-30 02:41 | 35.94521 | -77.25330 | 35865 ft | 416 kts | 215° |
| 2026-04-30 02:41 | 35.91975 | -77.26886 | 35864 ft | 402 kts | 223° |
| 2026-04-30 02:42 | 35.89709 | -77.28818 | 35864 ft | 391 kts | 230° |
| 2026-04-30 02:42 | 35.85432 | -77.32969 | 35863 ft | 392 kts | 230° |
| 2026-04-30 02:43 | 35.81138 | -77.37110 | 35867 ft | 392 kts | 230° |
| 2026-04-30 02:43 | 35.76848 | -77.41243 | 35870 ft | 392 kts | 230° |
| 2026-04-30 02:44 | 35.72546 | -77.45379 | 35871 ft | 392 kts | 230° |
| 2026-04-30 02:44 | 35.68274 | -77.49485 | 35872 ft | 392 kts | 230° |
| 2026-04-30 02:45 | 35.63969 | -77.53610 | 35876 ft | 392 kts | 230° |
| 2026-04-30 02:45 | 35.59670 | -77.57735 | 35875 ft | 392 kts | 230° |
| 2026-04-30 02:46 | 35.55362 | -77.61859 | 35875 ft | 393 kts | 230° |
| 2026-04-30 02:46 | 35.51047 | -77.65979 | 35895 ft | 393 kts | 230° |
| 2026-04-30 02:47 | 35.46726 | -77.70092 | 35898 ft | 393 kts | 230° |
| 2026-04-30 02:47 | 35.42403 | -77.74208 | 35899 ft | 394 kts | 230° |
| 2026-04-30 02:48 | 35.38077 | -77.78327 | 35898 ft | 394 kts | 230° |
| 2026-04-30 02:48 | 35.33744 | -77.82441 | 35902 ft | 394 kts | 230° |
| 2026-04-30 02:49 | 35.29408 | -77.86548 | 35907 ft | 394 kts | 230° |
| 2026-04-30 02:49 | 35.25071 | -77.90666 | 35906 ft | 395 kts | 230° |
| 2026-04-30 02:50 | 35.20722 | -77.94780 | 35902 ft | 395 kts | 230° |
| 2026-04-30 02:50 | 35.16372 | -77.98887 | 35892 ft | 396 kts | 230° |
| 2026-04-30 02:51 | 35.12015 | -78.03002 | 35897 ft | 396 kts | 230° |
| 2026-04-30 02:51 | 35.07677 | -78.07087 | 35896 ft | 397 kts | 230° |
| 2026-04-30 02:52 | 35.03302 | -78.11198 | 35901 ft | 397 kts | 230° |
| 2026-04-30 02:52 | 34.98919 | -78.15309 | 35893 ft | 397 kts | 230° |
| 2026-04-30 02:53 | 34.94538 | -78.19417 | 35887 ft | 398 kts | 230° |
| 2026-04-30 02:53 | 34.90143 | -78.23529 | 35879 ft | 398 kts | 230° |
| 2026-04-30 02:54 | 34.85746 | -78.27649 | 35886 ft | 399 kts | 230° |
| 2026-04-30 02:54 | 34.81343 | -78.31770 | 35881 ft | 400 kts | 230° |
| 2026-04-30 02:55 | 34.76925 | -78.35888 | 35875 ft | 400 kts | 230° |
| 2026-04-30 02:55 | 34.72498 | -78.40008 | 35883 ft | 401 kts | 230° |
| 2026-04-30 02:56 | 34.68067 | -78.44136 | 35889 ft | 402 kts | 230° |
| 2026-04-30 02:56 | 34.63624 | -78.48262 | 35899 ft | 402 kts | 230° |
| 2026-04-30 02:57 | 34.59201 | -78.52360 | 35900 ft | 403 kts | 230° |
| 2026-04-30 02:57 | 34.54713 | -78.56519 | 35903 ft | 403 kts | 230° |
| 2026-04-30 02:58 | 34.50282 | -78.60622 | 35900 ft | 404 kts | 230° |
| 2026-04-30 02:58 | 34.45805 | -78.64755 | 35896 ft | 405 kts | 230° |
| 2026-04-30 02:59 | 34.41318 | -78.68892 | 35914 ft | 406 kts | 230° |
| 2026-04-30 02:59 | 34.36737 | -78.72942 | 35919 ft | 410 kts | 227° |
| 2026-04-30 03:00 | 34.32001 | -78.76836 | 35921 ft | 412 kts | 227° |
| 2026-04-30 03:00 | 34.27247 | -78.80722 | 35918 ft | 412 kts | 227° |
| 2026-04-30 03:01 | 34.22515 | -78.84639 | 35913 ft | 413 kts | 227° |
| 2026-04-30 03:01 | 34.17785 | -78.88586 | 35901 ft | 414 kts | 227° |
| 2026-04-30 03:02 | 34.13039 | -78.92538 | 35891 ft | 415 kts | 227° |
| 2026-04-30 03:02 | 34.08311 | -78.96471 | 35889 ft | 416 kts | 227° |
| 2026-04-30 03:03 | 34.03530 | -79.00435 | 35897 ft | 418 kts | 226° |
| 2026-04-30 03:03 | 33.96330 | -79.06385 | 35897 ft | 419 kts | 226° |
| 2026-04-30 03:04 | 33.91513 | -79.10368 | 35897 ft | 420 kts | 226° |
| 2026-04-30 03:04 | 33.86684 | -79.14361 | 35899 ft | 422 kts | 226° |
| 2026-04-30 03:05 | 33.81839 | -79.18358 | 35893 ft | 423 kts | 226° |
| 2026-04-30 03:05 | 33.76976 | -79.22358 | 35889 ft | 424 kts | 226° |
| 2026-04-30 03:06 | 33.72102 | -79.26363 | 35887 ft | 425 kts | 226° |
| 2026-04-30 03:06 | 33.67219 | -79.30366 | 35893 ft | 425 kts | 226° |
| 2026-04-30 03:07 | 33.62387 | -79.34430 | 35895 ft | 423 kts | 227° |
| 2026-04-30 03:07 | 33.57594 | -79.38535 | 35913 ft | 423 kts | 227° |
| 2026-04-30 03:08 | 33.52803 | -79.42626 | 35922 ft | 423 kts | 227° |
| 2026-04-30 03:08 | 33.48028 | -79.46679 | 35933 ft | 423 kts | 226° |
| 2026-04-30 03:09 | 33.43217 | -79.50749 | 35933 ft | 423 kts | 226° |
| 2026-04-30 03:09 | 33.38401 | -79.54814 | 35931 ft | 424 kts | 226° |
| 2026-04-30 03:10 | 33.33581 | -79.58875 | 35922 ft | 424 kts | 226° |
| 2026-04-30 03:10 | 33.28757 | -79.62935 | 35920 ft | 424 kts | 226° |
| 2026-04-30 03:11 | 33.23930 | -79.66994 | 35912 ft | 424 kts | 226° |
| 2026-04-30 03:11 | 33.19101 | -79.71054 | 35929 ft | 425 kts | 226° |
| 2026-04-30 03:12 | 33.14262 | -79.75108 | 35933 ft | 425 kts | 226° |
| 2026-04-30 03:12 | 33.09425 | -79.79161 | 35933 ft | 425 kts | 226° |
| 2026-04-30 03:13 | 33.04576 | -79.83221 | 35942 ft | 426 kts | 225° |
| 2026-04-30 03:13 | 32.99721 | -79.87273 | 35943 ft | 426 kts | 225° |
| 2026-04-30 03:14 | 32.94891 | -79.91302 | 35943 ft | 427 kts | 225° |
| 2026-04-30 03:14 | 32.90029 | -79.95348 | 35945 ft | 427 kts | 225° |
| 2026-04-30 03:15 | 32.85155 | -79.99399 | 35945 ft | 427 kts | 225° |
| 2026-04-30 03:15 | 32.80284 | -80.03443 | 35945 ft | 428 kts | 225° |
| 2026-04-30 03:16 | 32.75406 | -80.07496 | 35952 ft | 428 kts | 225° |
| 2026-04-30 03:16 | 32.70522 | -80.11546 | 35954 ft | 428 kts | 225° |
| 2026-04-30 03:17 | 32.65634 | -80.15597 | 35950 ft | 429 kts | 225° |
| 2026-04-30 03:17 | 32.60738 | -80.19642 | 35951 ft | 429 kts | 225° |
| 2026-04-30 03:18 | 32.55872 | -80.23661 | 35950 ft | 429 kts | 225° |
| 2026-04-30 03:18 | 32.50878 | -80.27589 | 35947 ft | 438 kts | 218° |
| 2026-04-30 03:19 | 32.45501 | -80.30992 | 35947 ft | 439 kts | 218° |
| 2026-04-30 03:19 | 32.40112 | -80.34392 | 35954 ft | 439 kts | 218° |
| 2026-04-30 03:20 | 32.34722 | -80.37798 | 35965 ft | 439 kts | 218° |
| 2026-04-30 03:20 | 32.29330 | -80.41203 | 35971 ft | 439 kts | 218° |
| 2026-04-30 03:21 | 32.23934 | -80.44605 | 35965 ft | 440 kts | 218° |
| 2026-04-30 03:21 | 32.18534 | -80.48001 | 35966 ft | 440 kts | 218° |
| 2026-04-30 03:22 | 32.13131 | -80.51395 | 35968 ft | 440 kts | 218° |
| 2026-04-30 03:22 | 32.07726 | -80.54789 | 35969 ft | 440 kts | 218° |
| 2026-04-30 03:23 | 32.02355 | -80.58154 | 35959 ft | 441 kts | 218° |
| 2026-04-30 03:23 | 31.96939 | -80.61543 | 35953 ft | 441 kts | 218° |
| 2026-04-30 03:24 | 31.91519 | -80.64934 | 35946 ft | 441 kts | 218° |
| 2026-04-30 03:24 | 31.86091 | -80.68321 | 35940 ft | 442 kts | 218° |
| 2026-04-30 03:25 | 31.80667 | -80.71710 | 35939 ft | 442 kts | 218° |
| 2026-04-30 03:25 | 31.75221 | -80.75102 | 35944 ft | 443 kts | 218° |
| 2026-04-30 03:26 | 31.69779 | -80.78482 | 35948 ft | 443 kts | 218° |
| 2026-04-30 03:26 | 31.64324 | -80.81859 | 35946 ft | 443 kts | 218° |
| 2026-04-30 03:27 | 31.58867 | -80.85249 | 35950 ft | 444 kts | 218° |
| 2026-04-30 03:27 | 31.53445 | -80.88619 | 35950 ft | 444 kts | 218° |
| 2026-04-30 03:28 | 31.47977 | -80.92002 | 35951 ft | 445 kts | 217° |
| 2026-04-30 03:28 | 31.43389 | -80.94836 | 35949 ft | 445 kts | 217° |
| 2026-04-30 03:29 | 31.37022 | -80.98754 | 35951 ft | 445 kts | 217° |
| 2026-04-30 03:29 | 31.32424 | -81.01584 | 35953 ft | 446 kts | 217° |
| 2026-04-30 03:30 | 31.25857 | -81.05187 | 35958 ft | 459 kts | 206° |
| 2026-04-30 03:30 | 31.20526 | -81.06233 | 35958 ft | 479 kts | 189° |
| 2026-04-30 03:31 | 31.13841 | -81.06359 | 35957 ft | 481 kts | 189° |
| 2026-04-30 03:31 | 31.07150 | -81.06482 | 35961 ft | 481 kts | 189° |
| 2026-04-30 03:32 | 31.00453 | -81.06615 | 35965 ft | 481 kts | 189° |
| 2026-04-30 03:32 | 30.93759 | -81.06757 | 35972 ft | 481 kts | 189° |
| 2026-04-30 03:33 | 30.87069 | -81.06898 | 35979 ft | 481 kts | 189° |
| 2026-04-30 03:33 | 30.80374 | -81.07039 | 35982 ft | 481 kts | 189° |
| 2026-04-30 03:34 | 30.73679 | -81.07174 | 35989 ft | 481 kts | 189° |
| 2026-04-30 03:34 | 30.67030 | -81.07308 | 35989 ft | 481 kts | 189° |
| 2026-04-30 03:35 | 30.60343 | -81.07463 | 35990 ft | 480 kts | 189° |
| 2026-04-30 03:35 | 30.53689 | -81.07835 | 35985 ft | 478 kts | 191° |
| 2026-04-30 03:36 | 30.47054 | -81.08324 | 35991 ft | 478 kts | 191° |
| 2026-04-30 03:36 | 30.40420 | -81.08766 | 35989 ft | 478 kts | 191° |
| 2026-04-30 03:37 | 30.33770 | -81.09155 | 35992 ft | 479 kts | 190° |
| 2026-04-30 03:37 | 30.27116 | -81.09537 | 35993 ft | 479 kts | 190° |
| 2026-04-30 03:38 | 30.20466 | -81.09932 | 35996 ft | 479 kts | 190° |
| 2026-04-30 03:38 | 30.13809 | -81.10334 | 36004 ft | 479 kts | 190° |
| 2026-04-30 03:39 | 30.07143 | -81.10734 | 36007 ft | 479 kts | 190° |
| 2026-04-30 03:39 | 30.00476 | -81.11132 | 36010 ft | 480 kts | 189° |
| 2026-04-30 03:40 | 29.93812 | -81.11532 | 36014 ft | 480 kts | 189° |
| 2026-04-30 03:40 | 29.87138 | -81.11929 | 36014 ft | 480 kts | 189° |
| 2026-04-30 03:41 | 29.80466 | -81.12308 | 36013 ft | 481 kts | 188° |
| 2026-04-30 03:41 | 29.73802 | -81.12420 | 36006 ft | 483 kts | 186° |
| 2026-04-30 03:42 | 29.67076 | -81.12354 | 36010 ft | 483 kts | 186° |
| 2026-04-30 03:42 | 29.60350 | -81.12286 | 36019 ft | 485 kts | 182° |
| 2026-04-30 03:43 | 29.53664 | -81.10804 | 36037 ft | 497 kts | 165° |
| 2026-04-30 03:43 | 29.47147 | -81.08104 | 36025 ft | 498 kts | 164° |
| 2026-04-30 03:44 | 29.40641 | -81.05396 | 36020 ft | 498 kts | 164° |
| 2026-04-30 03:44 | 29.34129 | -81.02705 | 36021 ft | 497 kts | 164° |
| 2026-04-30 03:45 | 29.27627 | -81.00020 | 36037 ft | 497 kts | 164° |
| 2026-04-30 03:45 | 29.21121 | -80.97341 | 36039 ft | 497 kts | 164° |
| 2026-04-30 03:46 | 29.14619 | -80.94668 | 36036 ft | 496 kts | 164° |
| 2026-04-30 03:46 | 29.08125 | -80.91998 | 36033 ft | 496 kts | 164° |
| 2026-04-30 03:47 | 29.01686 | -80.89357 | 36029 ft | 495 kts | 164° |
| 2026-04-30 03:47 | 28.95155 | -80.86678 | 36026 ft | 495 kts | 163° |
| 2026-04-30 03:48 | 28.88724 | -80.84049 | 36016 ft | 494 kts | 163° |
| 2026-04-30 03:48 | 28.82255 | -80.81405 | 36011 ft | 494 kts | 163° |
| 2026-04-30 03:49 | 28.75818 | -80.78770 | 35388 ft | 490 kts | 163° |
| 2026-04-30 03:49 | 28.72608 | -80.77461 | 34748 ft | 490 kts | 163° |
| 2026-04-30 03:49 | 28.69390 | -80.76153 | 34115 ft | 490 kts | 163° |
| 2026-04-30 03:50 | 28.66181 | -80.74852 | 33400 ft | 491 kts | 163° |
| 2026-04-30 03:50 | 28.62965 | -80.73547 | 32653 ft | 491 kts | 162° |
| 2026-04-30 03:50 | 28.59744 | -80.72242 | 31902 ft | 491 kts | 162° |
| 2026-04-30 03:50 | 28.56522 | -80.70939 | 31145 ft | 492 kts | 162° |
| 2026-04-30 03:51 | 28.53297 | -80.69630 | 30378 ft | 492 kts | 161° |
| 2026-04-30 03:51 | 28.50072 | -80.68318 | 29516 ft | 493 kts | 161° |
| 2026-04-30 03:51 | 28.46857 | -80.67007 | 28818 ft | 488 kts | 161° |
| 2026-04-30 03:51 | 28.43677 | -80.65712 | 28176 ft | 483 kts | 161° |
| 2026-04-30 03:52 | 28.40526 | -80.64435 | 27543 ft | 478 kts | 161° |
| 2026-04-30 03:52 | 28.37405 | -80.63176 | 26917 ft | 474 kts | 161° |
| 2026-04-30 03:52 | 28.34315 | -80.61925 | 26320 ft | 470 kts | 161° |
| 2026-04-30 03:52 | 28.31256 | -80.60684 | 25732 ft | 466 kts | 162° |
| 2026-04-30 03:53 | 28.28216 | -80.59455 | 25202 ft | 462 kts | 162° |
| 2026-04-30 03:53 | 28.25189 | -80.58240 | 24998 ft | 462 kts | 162° |
| 2026-04-30 03:53 | 28.22212 | -80.57043 | 24658 ft | 458 kts | 162° |
| 2026-04-30 03:53 | 28.19223 | -80.55837 | 24149 ft | 454 kts | 162° |
| 2026-04-30 03:54 | 28.16244 | -80.54634 | 23956 ft | 455 kts | 162° |
| 2026-04-30 03:54 | 28.13263 | -80.53428 | 24004 ft | 455 kts | 162° |
| 2026-04-30 03:54 | 28.10276 | -80.52219 | 24007 ft | 456 kts | 162° |
| 2026-04-30 03:54 | 28.07285 | -80.51014 | 24005 ft | 456 kts | 162° |
| 2026-04-30 03:55 | 28.04292 | -80.49810 | 24008 ft | 457 kts | 162° |
| 2026-04-30 03:55 | 28.01298 | -80.48605 | 24004 ft | 457 kts | 162° |
| 2026-04-30 03:55 | 27.98302 | -80.47400 | 24009 ft | 457 kts | 162° |
| 2026-04-30 03:55 | 27.95310 | -80.46201 | 24001 ft | 452 kts | 162° |
| 2026-04-30 03:56 | 27.92410 | -80.45040 | 24001 ft | 437 kts | 162° |
| 2026-04-30 03:56 | 27.89562 | -80.43902 | 23936 ft | 434 kts | 162° |
| 2026-04-30 03:56 | 27.86730 | -80.42771 | 23590 ft | 430 kts | 162° |
| 2026-04-30 03:56 | 27.83921 | -80.41648 | 23146 ft | 427 kts | 162° |
| 2026-04-30 03:57 | 27.81133 | -80.40532 | 22718 ft | 423 kts | 161° |
| 2026-04-30 03:57 | 27.78365 | -80.39421 | 22283 ft | 420 kts | 161° |
| 2026-04-30 03:57 | 27.75621 | -80.38317 | 21847 ft | 417 kts | 161° |
| 2026-04-30 03:57 | 27.72897 | -80.37220 | 21415 ft | 414 kts | 161° |
| 2026-04-30 03:58 | 27.70198 | -80.36137 | 20985 ft | 411 kts | 161° |
| 2026-04-30 03:58 | 27.67509 | -80.35061 | 20557 ft | 407 kts | 161° |
| 2026-04-30 03:58 | 27.64907 | -80.33847 | 20129 ft | 404 kts | 155° |
| 2026-04-30 03:58 | 27.62370 | -80.32505 | 19700 ft | 401 kts | 155° |
| 2026-04-30 03:59 | 27.59885 | -80.31194 | 19267 ft | 398 kts | 155° |
| 2026-04-30 03:59 | 27.57390 | -80.29876 | 18835 ft | 394 kts | 155° |
| 2026-04-30 03:59 | 27.54916 | -80.28569 | 18413 ft | 391 kts | 155° |
| 2026-04-30 03:59 | 27.52463 | -80.27273 | 17935 ft | 388 kts | 155° |
| 2026-04-30 04:00 | 27.50026 | -80.25988 | 17438 ft | 385 kts | 155° |
| 2026-04-30 04:00 | 27.47607 | -80.24713 | 16950 ft | 383 kts | 155° |
| 2026-04-30 04:00 | 27.45204 | -80.23447 | 16461 ft | 380 kts | 155° |
| 2026-04-30 04:00 | 27.42815 | -80.22188 | 15975 ft | 378 kts | 155° |
| 2026-04-30 04:01 | 27.40440 | -80.20937 | 15336 ft | 375 kts | 155° |
| 2026-04-30 04:01 | 27.38080 | -80.19697 | 14721 ft | 374 kts | 155° |
| 2026-04-30 04:01 | 27.35732 | -80.18465 | 14120 ft | 371 kts | 155° |
| 2026-04-30 04:01 | 27.33399 | -80.17241 | 13486 ft | 368 kts | 155° |
| 2026-04-30 04:02 | 27.31101 | -80.16033 | 12844 ft | 359 kts | 155° |
| 2026-04-30 04:02 | 27.28868 | -80.14859 | 12224 ft | 350 kts | 155° |
| 2026-04-30 04:02 | 27.26690 | -80.13717 | 11603 ft | 341 kts | 155° |
| 2026-04-30 04:02 | 27.24557 | -80.12611 | 11019 ft | 334 kts | 156° |
| 2026-04-30 04:03 | 27.22451 | -80.11566 | 10423 ft | 328 kts | 157° |
| 2026-04-30 04:03 | 27.20374 | -80.10565 | 9841 ft | 322 kts | 157° |
| 2026-04-30 04:03 | 27.18330 | -80.09592 | 9205 ft | 317 kts | 158° |
| 2026-04-30 04:03 | 27.16318 | -80.08632 | 8627 ft | 310 kts | 157° |
| 2026-04-30 04:04 | 27.14358 | -80.07691 | 8440 ft | 302 kts | 157° |
| 2026-04-30 04:04 | 27.12439 | -80.06764 | 8172 ft | 299 kts | 157° |
| 2026-04-30 04:04 | 27.10547 | -80.05832 | 7856 ft | 297 kts | 156° |
| 2026-04-30 04:04 | 27.08664 | -80.04897 | 7539 ft | 295 kts | 156° |
| 2026-04-30 04:05 | 27.06789 | -80.03969 | 7235 ft | 293 kts | 156° |
| 2026-04-30 04:05 | 27.04927 | -80.03047 | 6939 ft | 292 kts | 156° |
| 2026-04-30 04:05 | 27.03098 | -80.02140 | 6636 ft | 291 kts | 156° |
| 2026-04-30 04:05 | 27.01252 | -80.01225 | 6323 ft | 289 kts | 157° |
| 2026-04-30 04:06 | 26.99419 | -80.00317 | 6022 ft | 288 kts | 157° |
| 2026-04-30 04:06 | 26.98181 | -79.99708 | 5800 ft | 286 kts | 159° |
| 2026-04-30 04:06 | 26.97277 | -79.99356 | 5722 ft | 282 kts | 167° |
| 2026-04-30 04:06 | 26.95344 | -79.99203 | 5364 ft | 278 kts | 190° |
| 2026-04-30 04:07 | 26.93518 | -79.99831 | 5052 ft | 273 kts | 210° |
| 2026-04-30 04:07 | 26.91974 | -80.01038 | 4741 ft | 270 kts | 220° |
| 2026-04-30 04:07 | 26.90492 | -80.02326 | 4405 ft | 269 kts | 220° |
| 2026-04-30 04:08 | 26.87535 | -80.04868 | 3763 ft | 265 kts | 219° |
| 2026-04-30 04:08 | 26.86079 | -80.06116 | 3224 ft | 262 kts | 218° |
| 2026-04-30 04:08 | 26.84656 | -80.07339 | 3019 ft | 251 kts | 217° |
| 2026-04-30 04:08 | 26.83342 | -80.08476 | 2994 ft | 226 kts | 218° |
| 2026-04-30 04:09 | 26.82141 | -80.09520 | 3000 ft | 216 kts | 218° |
| 2026-04-30 04:09 | 26.81129 | -80.10745 | 3003 ft | 215 kts | 238° |
| 2026-04-30 04:09 | 26.80574 | -80.12287 | 3003 ft | 215 kts | 258° |
| 2026-04-30 04:09 | 26.80430 | -80.13952 | 3007 ft | 216 kts | 265° |
| 2026-04-30 04:10 | 26.80319 | -80.15619 | 3007 ft | 209 kts | 264° |
| 2026-04-30 04:10 | 26.80201 | -80.17194 | 3007 ft | 203 kts | 264° |
| 2026-04-30 04:10 | 26.80072 | -80.18752 | 3003 ft | 200 kts | 263° |
| 2026-04-30 04:10 | 26.79933 | -80.20299 | 3004 ft | 200 kts | 263° |
| 2026-04-30 04:11 | 26.79788 | -80.21843 | 3005 ft | 200 kts | 263° |
| 2026-04-30 04:11 | 26.79640 | -80.23386 | 3001 ft | 199 kts | 262° |
| 2026-04-30 04:11 | 26.79489 | -80.24932 | 3005 ft | 200 kts | 262° |
| 2026-04-30 04:11 | 26.79315 | -80.26467 | 2948 ft | 197 kts | 255° |
| 2026-04-30 04:12 | 26.78633 | -80.27728 | 2688 ft | 191 kts | 215° |
| 2026-04-30 04:12 | 26.77419 | -80.28257 | 2400 ft | 189 kts | 188° |
| 2026-04-30 04:12 | 26.76111 | -80.28395 | 2134 ft | 189 kts | 183° |
| 2026-04-30 04:12 | 26.74806 | -80.28461 | 2021 ft | 187 kts | 182° |
| 2026-04-30 04:13 | 26.73509 | -80.28514 | 2002 ft | 187 kts | 182° |
| 2026-04-30 04:13 | 26.72208 | -80.28564 | 2004 ft | 187 kts | 181° |
| 2026-04-30 04:13 | 26.70965 | -80.28201 | 1998 ft | 189 kts | 145° |
| 2026-04-30 04:13 | 26.70084 | -80.27093 | 2006 ft | 193 kts | 126° |
| 2026-04-30 04:14 | 26.69374 | -80.25815 | 2004 ft | 194 kts | 123° |
| 2026-04-30 04:14 | 26.68903 | -80.24401 | 2001 ft | 197 kts | 98° |
| 2026-04-30 04:14 | 26.68831 | -80.22917 | 2035 ft | 183 kts | 95° |
| 2026-04-30 04:14 | 26.68778 | -80.21537 | 1866 ft | 173 kts | 96° |
| 2026-04-30 04:15 | 26.68726 | -80.20262 | 1703 ft | 156 kts | 96° |
| 2026-04-30 04:15 | 26.68677 | -80.19091 | 1502 ft | 148 kts | 96° |
| 2026-04-30 04:15 | 26.68636 | -80.17960 | 1286 ft | 144 kts | 95° |
| 2026-04-30 04:15 | 26.68598 | -80.16847 | 1108 ft | 142 kts | 97° |
| 2026-04-30 04:16 | 26.68549 | -80.15743 | 935 ft | 142 kts | 97° |
| 2026-04-30 04:16 | 26.68490 | -80.14641 | 760 ft | 143 kts | 96° |
| 2026-04-30 04:16 | 26.68445 | -80.13554 | 623 ft | 141 kts | 96° |
| 2026-04-30 04:16 | 26.68393 | -80.12452 | 415 ft | 143 kts | 96° |
| 2026-04-30 04:17 | 26.68347 | -80.11335 | 237 ft | 143 kts | 96° |
| 2026-04-30 04:17 | 26.68295 | -80.10226 | 56 ft | 143 kts | 95° |
| 2026-04-30 04:17 | 26.68250 | -80.09225 | 26 ft | 99 kts | 93° |
| 2026-04-30 04:17 | 26.68230 | -80.08778 | 26 ft | 26 kts | 93° |
| 2026-04-30 04:18 | 26.68259 | -80.08667 | 28 ft | 8 kts | 49° |
| 2026-04-30 04:18 | 26.68313 | -80.08649 | 27 ft | 7 kts | 345° |
| 2026-04-30 04:18 | 26.68326 | -80.08658 | 30 ft | 0 kts | 322° |
| 2026-04-30 04:19 | 26.68334 | -80.08687 | 29 ft | 10 kts | 287° |
| 2026-04-30 04:19 | 26.68397 | -80.08722 | 26 ft | 12 kts | 5° |
| 2026-04-30 04:19 | 26.68442 | -80.08766 | 27 ft | 8 kts | 279° |
| 2026-04-30 04:19 | 26.68472 | -80.08772 | 26 ft | 3 kts | 1° |
| 2026-04-30 04:20 | 26.68499 | -80.08771 | 29 ft | 3 kts | 1° |
| 2026-04-30 04:20 | 26.68527 | -80.08770 | 27 ft | 5 kts | 1° |
| 2026-04-30 04:20 | 26.68546 | -80.08783 | 28 ft | 6 kts | 317° |
| 2026-04-30 04:20 | 26.68569 | -80.08818 | 26 ft | 3 kts | 288° |
| 2026-04-30 04:21 | 26.68571 | -80.08839 | 26 ft | 2 kts | 274° |
| 2026-04-30 04:21 | 26.68571 | -80.08853 | 26 ft | 1 kts | 272° |
| 2026-04-30 04:21 | 26.68572 | -80.08860 | 26 ft | 0 kts | 272° |
| 2026-04-30 04:21 | 26.68572 | -80.08861 | 26 ft | 0 kts | 272° |